Latest Weather Observations for Jervis Bay Airfield

IDN60901

Issued at 6:32 am EDT Saturday 16 October 2021 (issued every 10 minutes, with the page automatically refreshed every 10 minutes)

About weather observations | Map of Canberra area stations | Latest observations for Canberra area | Other Formats
Station Details ID: 068264 Name: JERVIS BAY AIRFIELD AWS Lat: -35.14 Lon: 150.70 Height: 57.18 m
Data from the previous 72 hours. | See also: Recent months at Jervis Bay Airfield
Date/Time
EDT
Temp
°C
App
Temp
°C
Dew
Point
°C
Rel
Hum
%
Delta-T
°C
Wind Press
QNH
hPa
Press
MSL
hPa
Rain since
9am
mm
Dir  Spd
km/h
Gust
km/h
Spd
kts
Gust
kts
16/06:30am 13.5 8.5 6.6 63 3.3 WNW 22 39 12 21 999.2 999.1 3.6
16/06:00am 13.6 9.1 6.9 64 3.3 WNW 20 33 11 18 998.9 998.8 3.6
16/05:30am 13.9 9.5 7.2 64 3.3 W 20 32 11 17 998.9 998.8 3.6
16/05:00am 13.8 9.4 7.6 66 3.1 WNW 20 33 11 18 998.6 998.5 3.6
16/04:30am 14.1 9.3 7.4 64 3.3 WNW 22 37 12 20 998.4 998.3 3.6
16/04:00am 13.9 9.1 7.4 65 3.2 WNW 22 39 12 21 998.6 998.5 3.6
16/03:30am 14.0 8.9 7.5 65 3.2 WNW 24 41 13 22 998.8 998.7 3.6
16/03:00am 13.6 9.3 7.8 68 2.9 WNW 20 39 11 21 999.2 999.1 3.6
16/02:30am 13.0 9.7 7.9 71 2.5 WNW 15 22 8 12 999.5 999.4 3.6
16/02:00am 12.4 9.0 7.7 73 2.3 W 15 30 8 16 1000.0 999.9 3.6
16/01:30am 11.6 9.7 7.5 76 2.0 WNW 7 9 4 5 1000.2 1000.1 3.6
16/01:00am 12.2 9.5 7.5 73 2.3 WNW 11 17 6 9 1000.5 1000.4 3.6
16/12:30am 12.2 10.1 8.1 76 2.0 WNW 9 15 5 8 1000.7 1000.6 3.6
16/12:00am 12.3 10.2 8.4 77 1.9 WNW 9 17 5 9 1000.7 1000.6 3.6
 
Date/Time
EDT
Temp
°C
App
Temp
°C
Dew
Point
°C
Rel
Hum
%
Delta-T
°C
Wind Press
QNH
hPa
Press
MSL
hPa
Rain since
9am
mm
Dir  Spd
km/h
Gust
km/h
Spd
kts
Gust
kts
15/11:30pm 12.3 9.4 8.2 76 2.0 WNW 13 20 7 11 1000.8 1000.7 3.6
15/11:00pm 12.3 10.3 8.6 78 1.9 W 9 11 5 6 1001.0 1000.9 3.6
15/10:30pm 12.4 10.5 10.5 88 1.0 W 11 15 6 8 1001.2 1001.0 3.6
15/10:00pm 12.9 11.2 11.3 90 0.9 W 11 17 6 9 1001.5 1001.3 3.6
15/09:30pm 13.6 10.5 11.5 87 1.1 SW 19 30 10 16 1001.4 1001.2 3.6
15/09:00pm 14.4 10.6 7.7 64 3.3 W 17 22 9 12 1001.3 1001.1 3.6
15/08:30pm 14.7 10.9 7.7 63 3.5 NW 17 32 9 17 1000.5 1000.4 3.6
15/08:00pm 15.3 11.1 7.3 59 4.0 WNW 19 33 10 18 1000.1 1000.0 3.6
15/07:30pm 15.0 11.6 9.1 68 3.0 NW 17 24 9 13 999.6 999.5 3.6
15/07:00pm 15.6 14.1 10.6 72 2.7 N 9 13 5 7 999.3 999.2 3.6
15/06:30pm 16.7 15.8 11.4 71 2.9 N 7 11 4 6 999.2 999.1 3.6
15/06:00pm 16.3 15.1 9.7 65 3.5 NW 6 7 3 4 998.9 998.8 3.6
15/05:30pm 16.9 14.2 9.1 60 4.0 W 13 20 7 11 998.7 998.6 3.6
15/05:00pm 17.2 14.6 9.4 60 4.1 WNW 13 20 7 11 998.7 998.6 3.6
15/04:30pm 18.1 16.1 10.0 59 4.3 NNW 11 17 6 9 998.5 998.4 3.6
15/04:00pm 17.7 15.7 11.5 67 3.4 N 13 22 7 12 998.3 998.2 3.6
15/03:30pm 16.6 14.3 11.7 73 2.7 NW 15 22 8 12 998.3 998.2 3.6
15/03:00pm 13.7 11.4 11.6 87 1.1 WSW 15 20 8 11 998.7 998.6 3.6
15/02:30pm 13.2 9.5 10.2 82 1.6 N 20 41 11 22 999.4 999.3 3.0
15/02:00pm 15.7 13.2 9.6 67 3.2 SSE 13 19 7 10 998.5 998.4 1.0
15/01:30pm 17.2 14.1 8.9 58 4.3 SSW 15 20 8 11 998.2 998.1 1.0
15/01:00pm 16.6 12.9 9.3 62 3.8 SSW 19 24 10 13 998.3 998.2 1.0
15/12:30pm 16.4 12.7 9.3 63 3.7 SW 19 26 10 14 998.4 998.3 1.0
15/12:00pm 15.8 12.5 9.7 67 3.2 WSW 17 24 9 13 999.3 999.2 1.0
15/11:30am 14.4 12.8 11.6 83 1.5 NW 11 17 6 9 1000.2 1000.1 1.0
15/11:00am 11.3 10.1 10.2 93 0.6 N 7 9 4 5 1001.0 1000.9 1.0
15/10:30am 12.1 10.1 8.6 79 1.7 N 9 20 5 11 1001.0 1000.9 1.0
15/10:00am 14.0 10.2 7.5 65 3.2 WNW 17 22 9 12 1002.5 1002.3 0.0
15/09:30am 14.1 9.8 7.2 63 3.4 WNW 19 30 10 16 1002.7 1002.5 0.0
15/09:07am 14.6 8.3 7.2 61 3.6 WNW 30 48 16 26 1002.7 1002.5 0.0
15/09:00am 14.5 7.6 6.6 59 3.9 WNW 32 46 17 25 1002.7 1002.5 12.8
15/08:36am 14.9 8.9 7.2 60 3.8 WNW 28 50 15 27 1002.8 1002.6 12.8
15/08:30am 15.2 9.7 7.7 61 3.7 WNW 26 37 14 20 1002.7 1002.5 12.8
15/08:11am 15.5 9.6 7.3 58 4.1 WNW 28 50 15 27 1002.5 1002.3 12.8
15/08:00am 15.1 10.5 8.3 64 3.5 WNW 22 32 12 17 1002.3 1002.1 12.8
15/07:30am 14.3 11.5 8.7 69 2.8 W 13 19 7 10 1002.0 1001.8 12.8
15/07:00am 13.6 11.4 9.5 76 2.1 W 11 17 6 9 1002.3 1002.1 12.8
15/06:30am 13.2 9.8 9.1 76 2.1 W 17 20 9 11 1002.7 1002.5 12.8
15/06:00am 13.2 10.0 10.0 81 1.7 W 17 20 9 11 1003.0 1002.8 12.8
15/05:30am 12.9 10.1 10.1 83 1.4 W 15 17 8 9 1003.1 1002.9 12.8
15/05:00am 12.9 9.4 10.8 87 1.1 NW 20 32 11 17 1003.4 1003.2 12.8
15/04:30am 13.3 10.5 11.2 87 1.1 W 17 24 9 13 1002.0 1001.8 12.8
15/04:00am 13.5 10.8 13.0 97 0.3 WNW 19 28 10 15 1001.6 1001.4 12.8
15/03:30am 12.9 12.0 12.6 98 0.2 W 9 15 5 8 1001.5 1001.3 12.6
15/03:00am 13.3 11.4 13.0 98 0.2 W 15 19 8 10 1001.4 1001.2 12.6
15/02:30am 13.4 13.0 13.1 98 0.2 WSW 7 9 4 5 1001.8 1001.6 12.6
15/02:00am 13.5 13.4 13.2 98 0.2 NW 6 9 3 5 1002.0 1001.8 12.6
15/01:30am 13.9 14.3 13.6 98 0.2 NNW 4 11 2 6 1002.2 1002.0 12.6
15/01:00am 13.7 12.7 13.4 98 0.2 NE 11 13 6 7 1002.3 1002.1 12.6
15/12:30am 14.0 13.8 13.7 98 0.2 NNW 7 11 4 6 1002.1 1001.9 12.6
15/12:00am 14.6 14.3 14.3 98 0.2 NW 9 11 5 6 1002.0 1001.8 12.6
 
Date/Time
EDT
Temp
°C
App
Temp
°C
Dew
Point
°C
Rel
Hum
%
Delta-T
°C
Wind Press
QNH
hPa
Press
MSL
hPa
Rain since
9am
mm
Dir  Spd
km/h
Gust
km/h
Spd
kts
Gust
kts
14/11:30pm 15.1 16.3 14.8 98 0.2 NE 2 6 1 3 1002.4 1002.2 12.6
14/11:00pm 15.4 15.4 15.1 98 0.2 N 9 13 5 7 1002.9 1002.7 12.4
14/10:30pm 15.5 15.5 15.2 98 0.2 NNW 9 13 5 7 1003.1 1002.9 12.2
14/10:09pm 15.9 15.7 15.6 98 0.2 NW 11 15 6 8 1002.6 1002.4 12.2
14/10:00pm 15.9 14.5 15.6 98 0.2 NW 17 32 9 17 1002.7 1002.5 12.0
14/09:43pm 17.2 15.8 16.9 98 0.2 NW 20 43 11 23 1003.1 1002.9 4.4
14/09:30pm 18.4 19.0 17.8 96 0.4 NW 11 22 6 12 1002.7 1002.5 1.0
14/09:26pm 18.5 18.0 17.7 95 0.5 NW 17 28 9 15 1002.7 1002.5 1.0
14/09:00pm 18.8 18.0 18.0 95 0.5 N 19 30 10 16 1002.8 1002.6 1.0
14/08:30pm 18.4 16.3 18.1 98 0.2 N 26 39 14 21 1002.6 1002.4 1.0
14/08:00pm 18.4 16.3 18.1 98 0.2 N 26 41 14 22 1002.8 1002.6 1.0
14/07:30pm 18.4 16.7 18.1 98 0.2 N 24 37 13 20 1002.6 1002.4 1.0
14/07:00pm 18.5 16.8 18.2 98 0.2 NNW 24 37 13 20 1002.3 1002.1 1.0
14/06:36pm 18.6 15.5 18.3 98 0.2 NNW 32 50 17 27 1002.0 1001.8 1.0
14/06:30pm 18.6 15.8 18.3 98 0.2 NNW 30 46 16 25 1001.8 1001.6 1.0
14/06:03pm 18.6 15.8 18.3 98 0.2 NE 30 50 16 27 1001.0 1000.9 0.4
14/06:00pm 18.6 15.8 18.3 98 0.2 NE 30 41 16 22 1000.9 1000.8 0.4
14/05:30pm 18.5 15.7 18.2 98 0.2 NNE 30 43 16 23 1002.5 1002.3 0.4
14/05:00pm 18.5 16.5 18.2 98 0.2 NNE 26 35 14 19 1002.7 1002.5 0.4
14/04:30pm 18.5 16.5 18.2 98 0.2 NNE 26 39 14 21 1002.5 1002.3 0.4
14/04:10pm 18.1 17.0 17.8 98 0.2 NNE 20 30 11 16 1002.7 1002.5 0.4
14/04:00pm 17.7 15.3 17.4 98 0.2 NNE 26 41 14 22 1002.6 1002.4 0.4
14/03:30pm 17.8 15.1 17.5 98 0.2 NNE 28 39 15 21 1003.3 1003.1 0.0
14/03:27pm 18.0 15.4 17.7 98 0.2 NNE 28 39 15 21 1003.8 1003.6 0.0
14/03:11pm 18.4 15.6 17.2 93 0.7 NNE 28 52 15 28 1004.0 1003.8 0.0
14/03:10pm 18.4 15.6 17.2 93 0.7 NNE 28 52 15 28 1004.0 1003.8 0.0
14/03:00pm 18.8 15.9 17.1 90 1.0 NNE 28 41 15 22 1004.0 1003.8 0.0
14/02:30pm 20.0 16.8 16.2 79 2.3 NNE 28 43 15 23 1004.2 1004.1 0.0
14/02:00pm 20.4 17.1 17.0 81 2.1 NNE 30 41 16 22 1004.6 1004.5 0.0
14/01:30pm 19.4 16.5 16.1 81 2.0 NNE 26 37 14 20 1005.0 1004.9 0.0
14/01:00pm 20.2 18.6 16.6 80 2.2 NE 20 30 11 16 1005.4 1005.3 0.0
14/12:30pm 19.2 18.3 16.8 86 1.5 NE 17 24 9 13 1005.8 1005.7 0.0
14/12:00pm 18.9 17.1 16.1 84 1.7 NNE 20 32 11 17 1007.1 1007.0 0.0
14/11:30am 19.1 15.9 15.4 79 2.2 NNE 26 33 14 18 1007.2 1007.1 0.0
14/11:00am 19.4 17.8 15.1 76 2.5 NNE 17 20 9 11 1007.6 1007.5 0.0
14/10:30am 20.2 19.3 15.8 76 2.6 NE 15 19 8 10 1007.8 1007.7 0.0
14/10:00am 19.1 18.7 14.1 73 2.9 NNW 9 11 5 6 1008.1 1008.0 0.0
14/09:30am 18.6 17.7 14.9 79 2.2 W 13 20 7 11 1008.7 1008.6 0.0
14/09:00am 19.0 18.6 15.1 78 2.3 N 11 17 6 9 1008.6 1008.5 8.4
14/08:30am 18.1 16.4 14.6 80 2.0 N 17 22 9 12 1008.5 1008.4 8.4
14/08:00am 17.6 16.3 14.9 84 1.6 N 15 26 8 14 1008.5 1008.4 8.4
14/07:30am 17.0 16.5 15.9 93 0.6 NNE 13 20 7 11 1008.3 1008.2 8.4
14/07:00am 16.4 14.8 15.9 97 0.3 NE 19 26 10 14 1008.3 1008.2 8.4
14/06:30am 15.7 14.6 15.2 97 0.3 NE 15 22 8 12 1008.1 1008.0 8.4
14/06:00am 16.3 15.4 15.8 97 0.3 NNE 15 24 8 13 1008.2 1008.1 8.4
14/05:30am 16.4 14.2 15.9 97 0.3 NNE 22 32 12 17 1007.9 1007.8 8.4
14/05:00am 16.5 14.0 16.2 98 0.2 NNE 24 39 13 21 1007.6 1007.5 8.4
14/04:30am 16.0 12.9 15.7 98 0.2 NNE 26 41 14 22 1007.7 1007.6 8.4
14/04:00am 16.2 13.2 15.9 98 0.2 NNE 26 37 14 20 1008.0 1007.9 8.4
14/03:30am 15.9 13.2 15.6 98 0.2 NNE 24 33 13 18 1008.3 1008.2 8.4
14/03:00am 15.6 12.4 15.3 98 0.2 NE 26 33 14 18 1008.6 1008.5 8.4
14/02:45am 15.8 12.7 15.5 98 0.2 NNE 26 37 14 20 1008.8 1008.7 8.4
14/02:32am 15.8 13.4 15.5 98 0.2 NNE 22 32 12 17 1009.3 1009.2 8.4
14/02:30am 15.8 13.8 15.5 98 0.2 NNE 20 32 11 17 1009.4 1009.3 8.4
14/02:13am 15.9 13.2 15.6 98 0.2 NNE 24 35 13 19 1009.8 1009.7 8.2
14/02:00am 16.0 12.9 15.7 98 0.2 NNE 26 41 14 22 1009.8 1009.7 7.4
14/01:49am 16.1 12.3 15.8 98 0.2 NNE 30 48 16 26 1010.1 1010.0 7.4
14/01:34am 16.5 12.4 16.0 97 0.3 NNE 32 54 17 29 1010.0 1009.9 7.4
14/01:30am 16.5 12.9 16.2 98 0.2 NNE 30 41 16 22 1010.1 1010.0 7.4
14/01:00am 16.3 13.6 15.5 95 0.5 NNE 24 39 13 21 1010.6 1010.5 7.4
14/12:30am 15.9 12.8 15.6 98 0.2 NNE 26 33 14 18 1010.9 1010.8 7.4
14/12:00am 16.0 13.3 15.5 97 0.3 NNE 24 35 13 19 1011.4 1011.3 7.4
 
Date/Time
EDT
Temp
°C
App
Temp
°C
Dew
Point
°C
Rel
Hum
%
Delta-T
°C
Wind Press
QNH
hPa
Press
MSL
hPa
Rain since
9am
mm
Dir  Spd
km/h
Gust
km/h
Spd
kts
Gust
kts
13/11:30pm 16.1 14.3 15.6 97 0.3 N 19 26 10 14 1012.0 1011.9 7.4
13/11:00pm 16.0 14.7 15.7 98 0.2 N 17 24 9 13 1012.4 1012.3 7.4
13/10:35pm 15.9 13.9 15.6 98 0.2 NNE 20 28 11 15 1012.3 1012.2 7.4
13/10:30pm 15.8 13.8 15.5 98 0.2 NNE 20 32 11 17 1012.4 1012.3 7.4
13/10:17pm 15.7 12.5 15.4 98 0.2 NNE 26 39 14 21 1012.3 1012.2 7.4
13/10:09pm 15.5 12.6 15.2 98 0.2 NNE 24 37 13 20 1012.3 1012.2 7.4
13/10:05pm 15.4 12.5 15.1 98 0.2 NNE 24 37 13 20 1012.3 1012.2 7.4
13/10:00pm 15.5 12.6 15.2 98 0.2 NNE 24 35 13 19 1012.5 1012.4 7.4
13/09:55pm 15.6 12.8 15.3 98 0.2 NNE 24 35 13 19 1012.4 1012.3 7.4
13/09:51pm 15.7 12.9 15.4 98 0.2 NNE 24 35 13 19 1012.6 1012.5 7.4
13/09:30pm 15.7 13.9 15.4 98 0.2 NNE 19 28 10 15 1012.5 1012.4 7.4
13/09:00pm 15.7 13.9 15.4 98 0.2 N 19 30 10 16 1013.0 1012.9 7.4
13/08:30pm 15.4 13.3 15.1 98 0.2 NNE 20 30 11 16 1012.9 1012.8 7.4
13/08:16pm 15.3 12.7 15.0 98 0.2 NNE 22 32 12 17 1012.8 1012.7 7.4
13/08:00pm 15.5 13.4 15.2 98 0.2 NE 20 32 11 17 1012.6 1012.5 7.4
13/07:33pm 15.2 12.6 14.9 98 0.2 NE 22 32 12 17 1012.4 1012.3 7.2
13/07:30pm 15.2 12.6 14.9 98 0.2 NE 22 30 12 16 1012.4 1012.3 7.2
13/07:00pm 14.8 10.2 14.5 98 0.2 NE 32 46 17 25 1012.5 1012.4 6.4
13/06:52pm 14.8 10.9 14.5 98 0.2 ENE 28 46 15 25 1012.6 1012.5 5.8
13/06:30pm 14.5 11.7 14.2 98 0.2 ENE 22 30 12 16 1012.7 1012.6 4.8
13/06:00pm 14.5 11.3 14.2 98 0.2 ENE 24 39 13 21 1012.8 1012.7 2.8
13/05:30pm 14.8 11.7 14.5 98 0.2 NE 24 35 13 19 1012.8 1012.7 2.4
13/05:00pm 14.7 12.3 14.4 98 0.2 ENE 20 32 11 17 1013.0 1012.9 1.8
13/04:30pm 14.7 12.3 14.4 98 0.2 ENE 20 35 11 19 1013.2 1013.1 1.0
13/04:24pm 14.6 12.2 14.3 98 0.2 ENE 20 35 11 19 1013.2 1013.1 0.8
13/04:20pm 14.7 12.3 14.4 98 0.2 ENE 20 24 11 13 1013.2 1013.1 0.8
13/04:15pm 14.7 12.5 14.4 98 0.2 ENE 19 26 10 14 1013.2 1013.1 0.6
13/04:00pm 14.6 12.7 14.3 98 0.2 ENE 17 22 9 12 1013.4 1013.3 0.6
13/03:55pm 14.6 12.7 14.3 98 0.2 ENE 17 22 9 12 1013.5 1013.4 0.6
13/03:30pm 14.5 12.2 14.2 98 0.2 ENE 19 28 10 15 1013.8 1013.7 0.4
13/03:00pm 14.7 12.9 14.4 98 0.2 ENE 17 24 9 13 1014.1 1014.0 0.0
13/02:30pm 14.5 12.2 14.2 98 0.2 NE 19 26 10 14 1014.5 1014.4 0.0
13/02:29pm 14.5 12.2 14.2 98 0.2 NE 19 26 10 14 1014.5 1014.4 0.0
13/02:06pm 15.0 12.5 13.4 90 0.9 NE 19 28 10 15 1014.7 1014.6 0.0
13/02:00pm 15.4 12.0 12.5 83 1.6 NE 22 35 12 19 1014.7 1014.6 0.0
13/01:30pm 17.5 13.8 12.6 73 2.7 ENE 24 33 13 18 1014.7 1014.6 0.0
13/01:00pm 17.6 13.5 11.4 67 3.4 NE 24 33 13 18 1015.1 1015.0 0.0
13/12:30pm 17.4 13.5 10.8 65 3.6 ENE 22 32 12 17 1015.4 1015.3 0.0
13/12:00pm 18.9 15.6 11.5 62 4.1 ENE 20 32 11 17 1015.8 1015.7 0.0
13/11:30am 18.1 14.0 10.0 59 4.3 ENE 22 30 12 16 1016.3 1016.2 0.0
13/11:00am 17.7 14.0 10.3 62 3.9 ENE 20 28 11 15 1016.6 1016.5 0.0
13/10:30am 17.9 14.4 10.8 63 3.8 ENE 20 30 11 16 1016.9 1016.8 0.0
13/10:00am 16.7 13.1 9.9 64 3.6 ENE 19 28 10 15 1017.2 1017.1 0.0
13/09:30am 16.2 13.4 10.1 67 3.2 ENE 15 24 8 13 1017.4 1017.3 0.0
13/09:00am 15.4 13.1 10.4 72 2.6 ENE 13 19 7 10 1017.4 1017.3 0.4
13/08:30am 14.2 11.1 10.4 78 2.0 E 17 24 9 13 1017.5 1017.4 0.4
13/08:00am 13.5 11.1 11.4 87 1.1 E 15 22 8 12 1017.4 1017.3 0.4
13/07:30am 13.3 10.3 10.8 85 1.3 ESE 17 20 9 11 1017.4 1017.3 0.2
13/07:00am 13.8 10.2 10.0 78 2.0 E 19 30 10 16 1017.2 1017.1 0.2

Latest Capital City Observations: Canberra | Sydney | Melbourne | Brisbane | Adelaide | Perth | Hobart | Darwin

Other formats

Comma delimited format used in spreadsheet applications
http://www.bom.gov.au/fwo/IDN60903/IDN60903.94751.axf

JavaScript Object Notation format (JSON) in row-major order
http://www.bom.gov.au/fwo/IDN60903/IDN60903.94751.json

Data quality

Most of these data are generated automatically and are frequently updated. Quality checks on data are not normally performed. It is possible for incorrect values to appear. Refer to information at About Latest Weather Observations and please check the disclaimer before using these data.